LOT284 EPWR-EPWA
Flight info
| Callsign | LOT284 |
|---|---|
| Flight time | N/A |
| Altitude | 27000 |
| Route | LUNUK1K LUNUK DCT OKENO DCT GOGUS DCT AGAVA AGAVA6U |
| Aircraft | E75L/M-SDE3GILORVW/S |
Departure
| Time | 2026-05-08 19:28 |
|---|---|
| Airport | Copernicus Wrocław Airport (EPWR) |
Arrival
| Time | N/A |
|---|---|
| Airport | Warsaw Chopin Airport (EPWA) |
| Time | Latitude | Longitude | Altitude | Speed | Heading |
|---|---|---|---|---|---|
| 2026-05-08 18:42 | 51.10890 | 16.87941 | 397 ft | 0 kts | 26° |
| 2026-05-08 19:11 | 51.10890 | 16.87942 | 397 ft | 0 kts | 26° |
| 2026-05-08 19:11 | 51.10891 | 16.87942 | 397 ft | 0 kts | 26° |
| 2026-05-08 19:12 | 51.10882 | 16.87935 | 397 ft | 2 kts | 26° |
| 2026-05-08 19:12 | 51.10869 | 16.87925 | 397 ft | 2 kts | 26° |
| 2026-05-08 19:12 | 51.10856 | 16.87913 | 397 ft | 2 kts | 53° |
| 2026-05-08 19:12 | 51.10850 | 16.87891 | 397 ft | 2 kts | 56° |
| 2026-05-08 19:13 | 51.10839 | 16.87878 | 397 ft | 1 kts | 19° |
| 2026-05-08 19:13 | 51.10826 | 16.87880 | 397 ft | 1 kts | 321° |
| 2026-05-08 19:13 | 51.10820 | 16.87892 | 397 ft | 0 kts | 292° |
| 2026-05-08 19:15 | 51.10821 | 16.87889 | 397 ft | 0 kts | 292° |
| 2026-05-08 19:15 | 51.10828 | 16.87867 | 397 ft | 4 kts | 296° |
| 2026-05-08 19:16 | 51.10846 | 16.87806 | 397 ft | 7 kts | 296° |
| 2026-05-08 19:16 | 51.10872 | 16.87720 | 398 ft | 9 kts | 294° |
| 2026-05-08 19:16 | 51.10901 | 16.87628 | 399 ft | 9 kts | 298° |
| 2026-05-08 19:16 | 51.10926 | 16.87550 | 398 ft | 5 kts | 296° |
| 2026-05-08 19:17 | 51.10947 | 16.87480 | 398 ft | 8 kts | 293° |
| 2026-05-08 19:17 | 51.10973 | 16.87389 | 400 ft | 10 kts | 285° |
| 2026-05-08 19:17 | 51.11006 | 16.87281 | 400 ft | 12 kts | 296° |
| 2026-05-08 19:17 | 51.11008 | 16.87156 | 400 ft | 13 kts | 214° |
| 2026-05-08 19:18 | 51.10912 | 16.87112 | 400 ft | 16 kts | 151° |
| 2026-05-08 19:18 | 51.10851 | 16.87266 | 400 ft | 13 kts | 122° |
| 2026-05-08 19:18 | 51.10807 | 16.87307 | 401 ft | 7 kts | 187° |
| 2026-05-08 19:18 | 51.10773 | 16.87289 | 401 ft | 0 kts | 205° |
| 2026-05-08 19:22 | 51.10759 | 16.87279 | 402 ft | 5 kts | 205° |
| 2026-05-08 19:22 | 51.10695 | 16.87248 | 403 ft | 13 kts | 173° |
| 2026-05-08 19:22 | 51.10637 | 16.87377 | 403 ft | 17 kts | 117° |
| 2026-05-08 19:23 | 51.10581 | 16.87574 | 402 ft | 21 kts | 114° |
| 2026-05-08 19:23 | 51.10507 | 16.87813 | 400 ft | 26 kts | 116° |
| 2026-05-08 19:23 | 51.10419 | 16.88091 | 400 ft | 30 kts | 117° |
| 2026-05-08 19:23 | 51.10320 | 16.88418 | 397 ft | 34 kts | 115° |
| 2026-05-08 19:24 | 51.10209 | 16.88784 | 395 ft | 38 kts | 117° |
| 2026-05-08 19:24 | 51.10086 | 16.89182 | 394 ft | 40 kts | 116° |
| 2026-05-08 19:24 | 51.10003 | 16.89458 | 397 ft | 24 kts | 118° |
| 2026-05-08 19:24 | 51.09930 | 16.89691 | 397 ft | 15 kts | 103° |
| 2026-05-08 19:25 | 51.09909 | 16.89732 | 397 ft | 7 kts | 292° |
| 2026-05-08 19:25 | 51.09932 | 16.89675 | 397 ft | 0 kts | 295° |
| 2026-05-08 19:27 | 51.09932 | 16.89674 | 397 ft | 1 kts | 295° |
| 2026-05-08 19:28 | 51.10037 | 16.89330 | 396 ft | 69 kts | 296° |
| 2026-05-08 19:28 | 51.10345 | 16.88328 | 397 ft | 129 kts | 296° |
| 2026-05-08 19:28 | 51.10793 | 16.86853 | 633 ft | 155 kts | 296° |
| 2026-05-08 19:28 | 51.11264 | 16.85283 | 1237 ft | 161 kts | 296° |
| 2026-05-08 19:29 | 51.11729 | 16.83615 | 1797 ft | 174 kts | 296° |
| 2026-05-08 19:29 | 51.12214 | 16.81975 | 2821 ft | 160 kts | 299° |
| 2026-05-08 19:29 | 51.12743 | 16.80381 | 3495 ft | 167 kts | 302° |
| 2026-05-08 19:29 | 51.13335 | 16.78860 | 4241 ft | 158 kts | 306° |
| 2026-05-08 19:30 | 51.14013 | 16.77434 | 4380 ft | 176 kts | 312° |
| 2026-05-08 19:30 | 51.14901 | 16.75946 | 4657 ft | 183 kts | 318° |
| 2026-05-08 19:30 | 51.15750 | 16.74436 | 5008 ft | 184 kts | 307° |
| 2026-05-08 19:30 | 51.16483 | 16.72661 | 5566 ft | 198 kts | 303° |
| 2026-05-08 19:31 | 51.17221 | 16.70739 | 5957 ft | 221 kts | 299° |
| 2026-05-08 19:31 | 51.17982 | 16.68461 | 5967 ft | 239 kts | 293° |
| 2026-05-08 19:31 | 51.18274 | 16.65738 | 6019 ft | 264 kts | 276° |
| 2026-05-08 19:31 | 51.18627 | 16.62824 | 6000 ft | 267 kts | 287° |
| 2026-05-08 19:32 | 51.19257 | 16.60029 | 6132 ft | 279 kts | 301° |
| 2026-05-08 19:32 | 51.20671 | 16.57938 | 6809 ft | 283 kts | 336° |
| 2026-05-08 19:32 | 51.22573 | 16.57503 | 7719 ft | 281 kts | 9° |
| 2026-05-08 19:32 | 51.24333 | 16.58779 | 8626 ft | 280 kts | 33° |
| 2026-05-08 19:33 | 51.25935 | 16.60466 | 9444 ft | 280 kts | 30° |
| 2026-05-08 19:33 | 51.27589 | 16.62053 | 10069 ft | 274 kts | 28° |
| 2026-05-08 19:33 | 51.29236 | 16.63560 | 10335 ft | 278 kts | 28° |
| 2026-05-08 19:33 | 51.30955 | 16.65098 | 10518 ft | 285 kts | 27° |
| 2026-05-08 19:34 | 51.32714 | 16.66657 | 10743 ft | 290 kts | 27° |
| 2026-05-08 19:34 | 51.34462 | 16.68263 | 11014 ft | 293 kts | 35° |
| 2026-05-08 19:34 | 51.35723 | 16.70840 | 11263 ft | 301 kts | 68° |
| 2026-05-08 19:34 | 51.35996 | 16.74161 | 11384 ft | 311 kts | 98° |
| 2026-05-08 19:35 | 51.35473 | 16.77579 | 11479 ft | 320 kts | 105° |
| 2026-05-08 19:35 | 51.34878 | 16.81005 | 11624 ft | 325 kts | 105° |
| 2026-05-08 19:35 | 51.34272 | 16.84488 | 11814 ft | 328 kts | 105° |
| 2026-05-08 19:35 | 51.33648 | 16.88069 | 12116 ft | 340 kts | 105° |
| 2026-05-08 19:36 | 51.33011 | 16.91715 | 12808 ft | 345 kts | 105° |
| 2026-05-08 19:36 | 51.32372 | 16.95368 | 13660 ft | 345 kts | 105° |
| 2026-05-08 19:36 | 51.31721 | 16.99087 | 14512 ft | 347 kts | 105° |
| 2026-05-08 19:36 | 51.31157 | 17.02794 | 15311 ft | 349 kts | 96° |
| 2026-05-08 19:37 | 51.31177 | 17.06661 | 16038 ft | 352 kts | 82° |
| 2026-05-08 19:37 | 51.31569 | 17.10520 | 16718 ft | 356 kts | 77° |
| 2026-05-08 19:37 | 51.32104 | 17.14419 | 17406 ft | 360 kts | 76° |
| 2026-05-08 19:37 | 51.32690 | 17.18310 | 18062 ft | 364 kts | 75° |
| 2026-05-08 19:38 | 51.33301 | 17.22237 | 18706 ft | 368 kts | 75° |
| 2026-05-08 19:38 | 51.33919 | 17.26174 | 19337 ft | 372 kts | 75° |
| 2026-05-08 19:38 | 51.34556 | 17.30226 | 19964 ft | 376 kts | 75° |
| 2026-05-08 19:38 | 51.35189 | 17.34256 | 20569 ft | 379 kts | 75° |
| 2026-05-08 19:39 | 51.35836 | 17.38378 | 21166 ft | 383 kts | 75° |
| 2026-05-08 19:39 | 51.36479 | 17.42486 | 21731 ft | 387 kts | 75° |
| 2026-05-08 19:39 | 51.37135 | 17.46689 | 22294 ft | 391 kts | 75° |
| 2026-05-08 19:39 | 51.37797 | 17.50940 | 22841 ft | 395 kts | 75° |
| 2026-05-08 19:40 | 51.38453 | 17.55166 | 23377 ft | 399 kts | 75° |
| 2026-05-08 19:40 | 51.39125 | 17.59507 | 23902 ft | 402 kts | 75° |
| 2026-05-08 19:40 | 51.39800 | 17.63872 | 24431 ft | 406 kts | 75° |
| 2026-05-08 19:40 | 51.40453 | 17.68113 | 24912 ft | 409 kts | 75° |
| 2026-05-08 19:41 | 51.41142 | 17.72599 | 25393 ft | 413 kts | 75° |
| 2026-05-08 19:41 | 51.41825 | 17.77054 | 25868 ft | 416 kts | 75° |
| 2026-05-08 19:41 | 51.42511 | 17.81549 | 26314 ft | 420 kts | 75° |
| 2026-05-08 19:41 | 51.43203 | 17.86087 | 26767 ft | 423 kts | 75° |
| 2026-05-08 19:42 | 51.43892 | 17.90623 | 27121 ft | 424 kts | 75° |
| 2026-05-08 19:42 | 51.44596 | 17.95269 | 27158 ft | 438 kts | 75° |
| 2026-05-08 19:42 | 51.45323 | 18.00081 | 27161 ft | 450 kts | 75° |
| 2026-05-08 19:42 | 51.46057 | 18.04964 | 27165 ft | 454 kts | 75° |
| 2026-05-08 19:43 | 51.46794 | 18.09871 | 27152 ft | 454 kts | 75° |
| 2026-05-08 19:43 | 51.47527 | 18.14766 | 27158 ft | 453 kts | 75° |
| 2026-05-08 19:43 | 51.48258 | 18.19669 | 27151 ft | 454 kts | 75° |
| 2026-05-08 19:43 | 51.48996 | 18.24635 | 27153 ft | 453 kts | 75° |
| 2026-05-08 19:44 | 51.49722 | 18.29531 | 27152 ft | 454 kts | 75° |
| 2026-05-08 19:44 | 51.50446 | 18.34429 | 27150 ft | 454 kts | 75° |
| 2026-05-08 19:44 | 51.51168 | 18.39332 | 27149 ft | 454 kts | 75° |
| 2026-05-08 19:44 | 51.51895 | 18.44286 | 27154 ft | 455 kts | 75° |
| 2026-05-08 19:45 | 51.52614 | 18.49193 | 27153 ft | 455 kts | 75° |
| 2026-05-08 19:45 | 51.53330 | 18.54102 | 27159 ft | 455 kts | 75° |
| 2026-05-08 19:45 | 51.54058 | 18.59105 | 27148 ft | 455 kts | 75° |
| 2026-05-08 19:45 | 51.54769 | 18.64008 | 27139 ft | 443 kts | 75° |
| 2026-05-08 19:46 | 51.55472 | 18.68869 | 27156 ft | 453 kts | 76° |
| 2026-05-08 19:46 | 51.56170 | 18.73717 | 27095 ft | 437 kts | 76° |
| 2026-05-08 19:46 | 51.57502 | 18.83002 | 25704 ft | 424 kts | 76° |
| 2026-05-08 19:47 | 51.58156 | 18.87581 | 24774 ft | 423 kts | 76° |
| 2026-05-08 19:47 | 51.58809 | 18.92172 | 23883 ft | 420 kts | 76° |
| 2026-05-08 19:47 | 51.59449 | 18.96688 | 23084 ft | 416 kts | 76° |
| 2026-05-08 19:47 | 51.60081 | 19.01155 | 22314 ft | 410 kts | 76° |
| 2026-05-08 19:48 | 51.60714 | 19.05647 | 21533 ft | 405 kts | 76° |
| 2026-05-08 19:48 | 51.61324 | 19.09978 | 20785 ft | 399 kts | 76° |
| 2026-05-08 19:48 | 51.61927 | 19.14281 | 20019 ft | 395 kts | 76° |
| 2026-05-08 19:48 | 51.62526 | 19.18568 | 19277 ft | 390 kts | 76° |
| 2026-05-08 19:49 | 51.63113 | 19.22771 | 18524 ft | 385 kts | 76° |
| 2026-05-08 19:49 | 51.63690 | 19.26924 | 17795 ft | 381 kts | 76° |
| 2026-05-08 19:49 | 51.64259 | 19.31029 | 17080 ft | 376 kts | 76° |
| 2026-05-08 19:49 | 51.64810 | 19.35012 | 16383 ft | 372 kts | 76° |
| 2026-05-08 19:50 | 51.65369 | 19.39070 | 15663 ft | 368 kts | 76° |
| 2026-05-08 19:50 | 51.65915 | 19.43039 | 14960 ft | 364 kts | 76° |
| 2026-05-08 19:50 | 51.66459 | 19.47004 | 14252 ft | 360 kts | 76° |
| 2026-05-08 19:50 | 51.66988 | 19.50871 | 13566 ft | 356 kts | 76° |
| 2026-05-08 19:51 | 51.67484 | 19.54751 | 12886 ft | 352 kts | 83° |
| 2026-05-08 19:51 | 51.67612 | 19.58618 | 12223 ft | 348 kts | 82° |
| 2026-05-08 19:51 | 51.67960 | 19.62452 | 11566 ft | 343 kts | 78° |
| 2026-05-08 19:51 | 51.68412 | 19.66196 | 10903 ft | 339 kts | 77° |
| 2026-05-08 19:52 | 51.68896 | 19.69851 | 10274 ft | 336 kts | 77° |
| 2026-05-08 19:52 | 51.69402 | 19.73552 | 10163 ft | 342 kts | 77° |
| 2026-05-08 19:52 | 51.69926 | 19.77342 | 10140 ft | 346 kts | 77° |
| 2026-05-08 19:52 | 51.70452 | 19.81135 | 10131 ft | 347 kts | 76° |
| 2026-05-08 19:53 | 51.70973 | 19.84901 | 10125 ft | 348 kts | 77° |
| 2026-05-08 19:53 | 51.71498 | 19.88699 | 10123 ft | 347 kts | 77° |
| 2026-05-08 19:53 | 51.72025 | 19.92517 | 10130 ft | 347 kts | 77° |
| 2026-05-08 19:53 | 51.72488 | 19.95879 | 10124 ft | 347 kts | 77° |
| 2026-05-08 19:54 | 51.72952 | 19.99260 | 10122 ft | 347 kts | 77° |
| 2026-05-08 19:54 | 51.73475 | 20.03080 | 10129 ft | 347 kts | 77° |
| 2026-05-08 19:54 | 51.73993 | 20.06874 | 10123 ft | 346 kts | 77° |
| 2026-05-08 19:54 | 51.74514 | 20.10692 | 10120 ft | 346 kts | 77° |
| 2026-05-08 19:55 | 51.75024 | 20.14448 | 10119 ft | 346 kts | 77° |
| 2026-05-08 19:55 | 51.75542 | 20.18267 | 10125 ft | 346 kts | 77° |
| 2026-05-08 19:55 | 51.76051 | 20.22035 | 10120 ft | 347 kts | 77° |
| 2026-05-08 19:55 | 51.76568 | 20.25868 | 10118 ft | 346 kts | 77° |
| 2026-05-08 19:56 | 51.77079 | 20.29668 | 10125 ft | 347 kts | 77° |
| 2026-05-08 19:56 | 51.77588 | 20.33458 | 10122 ft | 347 kts | 77° |
| 2026-05-08 19:56 | 51.78102 | 20.37299 | 10123 ft | 348 kts | 77° |
| 2026-05-08 19:56 | 51.78605 | 20.41074 | 10125 ft | 348 kts | 77° |
| 2026-05-08 19:57 | 51.79120 | 20.44937 | 10126 ft | 349 kts | 77° |
| 2026-05-08 19:57 | 51.79624 | 20.48738 | 10118 ft | 348 kts | 77° |
| 2026-05-08 19:57 | 51.80135 | 20.52595 | 10121 ft | 348 kts | 77° |
| 2026-05-08 19:57 | 51.80639 | 20.56416 | 10120 ft | 349 kts | 76° |
| 2026-05-08 19:58 | 51.81508 | 20.60041 | 10124 ft | 346 kts | 52° |
| 2026-05-08 19:58 | 51.82987 | 20.62711 | 10162 ft | 337 kts | 43° |
| 2026-05-08 19:58 | 51.84583 | 20.65329 | 9980 ft | 316 kts | 43° |
| 2026-05-08 19:58 | 51.86134 | 20.67869 | 9694 ft | 310 kts | 43° |
| 2026-05-08 19:59 | 51.87586 | 20.70256 | 9339 ft | 284 kts | 43° |
| 2026-05-08 19:59 | 51.88917 | 20.72444 | 8926 ft | 266 kts | 43° |
| 2026-05-08 19:59 | 51.90187 | 20.74533 | 8616 ft | 257 kts | 43° |
| 2026-05-08 19:59 | 51.91440 | 20.76595 | 8321 ft | 251 kts | 43° |
| 2026-05-08 20:00 | 51.92643 | 20.78577 | 8061 ft | 244 kts | 43° |
| 2026-05-08 20:00 | 51.93801 | 20.80486 | 8111 ft | 244 kts | 43° |
| 2026-05-08 20:00 | 51.95050 | 20.82542 | 8352 ft | 269 kts | 43° |
| 2026-05-08 20:00 | 51.96343 | 20.84848 | 8980 ft | 279 kts | 52° |
| 2026-05-08 20:01 | 51.97317 | 20.87608 | 9291 ft | 294 kts | 68° |
| 2026-05-08 20:01 | 51.97716 | 20.90824 | 8288 ft | 295 kts | 90° |
| 2026-05-08 20:01 | 51.97369 | 20.94061 | 7435 ft | 288 kts | 112° |
| 2026-05-08 20:01 | 51.96312 | 20.96657 | 7348 ft | 268 kts | 138° |
| 2026-05-08 20:02 | 51.94810 | 20.98343 | 7342 ft | 263 kts | 150° |